createdAt,value
2018-05-18T00:01:47.766Z,25.80
2018-05-18T00:06:51.247Z,25.80
2018-05-18T00:11:53.797Z,25.80
2018-05-18T00:16:56.420Z,25.80
2018-05-18T00:21:59.018Z,25.80
2018-05-18T00:27:01.538Z,25.80
2018-05-18T00:32:04.251Z,25.80
2018-05-18T00:37:07.554Z,25.80
2018-05-18T00:42:10.285Z,25.70
2018-05-18T00:47:13.152Z,25.80
2018-05-18T00:52:15.743Z,25.80
2018-05-18T00:57:18.339Z,25.80
2018-05-18T01:02:21.834Z,25.70
2018-05-18T01:07:24.365Z,25.70
2018-05-18T01:12:28.029Z,25.70
2018-05-18T01:17:30.656Z,25.70
2018-05-18T01:22:33.481Z,25.70
2018-05-18T01:27:36.917Z,25.70
2018-05-18T01:32:39.732Z,25.70
2018-05-18T01:37:42.283Z,25.70
2018-05-18T01:42:44.843Z,25.70
2018-05-18T01:47:47.394Z,25.70
2018-05-18T01:52:49.963Z,25.70
2018-05-18T01:57:52.485Z,25.70
2018-05-18T02:02:55.081Z,25.70
2018-05-18T02:07:57.659Z,25.70
2018-05-18T02:13:01.090Z,25.70
2018-05-18T02:18:03.610Z,25.60
2018-05-18T02:23:06.179Z,25.60
2018-05-18T02:28:08.733Z,25.60
2018-05-18T02:33:11.326Z,25.60
2018-05-18T02:38:13.954Z,25.60
2018-05-18T02:43:17.266Z,25.60
2018-05-18T02:48:21.079Z,25.60
2018-05-18T02:53:24.407Z,25.60
2018-05-18T02:58:28.628Z,25.60
2018-05-18T03:03:31.424Z,25.60
2018-05-18T03:08:35.181Z,25.60
2018-05-18T03:13:37.961Z,25.60
2018-05-18T03:18:42.349Z,25.60
2018-05-18T03:23:45.494Z,25.60
2018-05-18T03:28:48.195Z,25.60
2018-05-18T03:33:50.846Z,25.60
2018-05-18T03:38:53.713Z,25.60
2018-05-18T03:43:56.409Z,25.60
2018-05-18T03:48:59.072Z,25.60
2018-05-18T03:54:02.451Z,25.60
2018-05-18T03:59:05.291Z,25.60
2018-05-18T04:04:19.815Z,25.60
2018-05-18T04:09:22.342Z,25.60
2018-05-18T04:14:24.996Z,25.60
2018-05-18T04:19:27.686Z,25.60
2018-05-18T04:24:30.349Z,25.60
2018-05-18T04:29:33.187Z,25.60
2018-05-18T04:34:36.481Z,25.60
2018-05-18T04:39:39.902Z,25.60
2018-05-18T04:44:43.215Z,25.60
2018-05-18T04:49:45.833Z,25.60
2018-05-18T04:54:48.838Z,25.60
2018-05-18T04:59:51.535Z,25.60
2018-05-18T05:04:54.116Z,25.60
2018-05-18T05:09:56.677Z,25.60
2018-05-18T05:14:59.281Z,25.60
2018-05-18T05:20:02.598Z,25.60
2018-05-18T05:25:05.840Z,25.60
2018-05-18T05:30:08.387Z,25.60
2018-05-18T05:35:11.014Z,25.60
2018-05-18T05:40:14.724Z,25.60
2018-05-18T05:45:17.502Z,25.60
2018-05-18T05:50:20.213Z,25.60
2018-05-18T05:55:22.731Z,25.60
2018-05-18T06:00:25.303Z,25.60
2018-05-18T06:05:29.159Z,25.60
2018-05-18T06:10:32.038Z,25.60
2018-05-18T06:15:34.607Z,25.60
2018-05-18T06:20:37.187Z,25.60
2018-05-18T06:25:40.043Z,25.60
2018-05-18T06:30:42.596Z,25.60
2018-05-18T06:35:45.585Z,25.60
2018-05-18T06:40:48.545Z,25.60
2018-05-18T06:45:51.134Z,25.60
2018-05-18T06:50:53.732Z,25.60
2018-05-18T06:55:56.316Z,25.60
2018-05-18T07:00:59.736Z,25.60
2018-05-18T07:06:02.434Z,25.60
2018-05-18T07:11:05.001Z,25.60
2018-05-18T07:16:07.660Z,25.60
2018-05-18T07:21:11.517Z,25.60
2018-05-18T07:26:14.548Z,25.60
2018-05-18T07:31:17.117Z,25.60
2018-05-18T07:36:19.783Z,25.60
2018-05-18T07:41:22.582Z,25.60
2018-05-18T07:46:25.337Z,25.60
2018-05-18T07:51:27.931Z,25.60
2018-05-18T07:56:31.771Z,25.70
2018-05-18T08:01:35.063Z,25.70
2018-05-18T08:06:37.649Z,25.60
2018-05-18T08:11:40.208Z,25.70
2018-05-18T08:16:42.823Z,25.70
2018-05-18T08:21:45.343Z,25.70
2018-05-18T08:27:00.066Z,25.80
2018-05-18T08:32:02.730Z,25.80
2018-05-18T08:37:06.148Z,25.80
2018-05-18T08:42:09.815Z,25.80
2018-05-18T08:47:12.494Z,25.80
2018-05-18T08:52:15.380Z,25.80
2018-05-18T08:57:17.937Z,25.80
2018-05-18T09:02:20.827Z,25.80
2018-05-18T09:07:23.570Z,25.80
2018-05-18T09:12:26.204Z,25.80
2018-05-18T09:17:28.868Z,25.80
2018-05-18T09:22:32.148Z,25.80
2018-05-18T09:27:35.494Z,25.80
2018-05-18T09:32:38.157Z,25.80
2018-05-18T09:37:40.882Z,25.80
2018-05-18T09:42:44.229Z,25.80
2018-05-18T09:47:46.863Z,25.80
2018-05-18T09:52:49.793Z,25.80
2018-05-18T09:57:53.142Z,25.80
2018-05-18T10:02:55.701Z,25.70
2018-05-18T10:07:59.048Z,25.80
2018-05-18T10:13:01.793Z,25.70
2018-05-18T10:18:05.707Z,25.80
2018-05-18T10:23:08.236Z,25.80
2018-05-18T10:28:11.180Z,25.80
2018-05-18T10:33:13.841Z,25.80
2018-05-18T10:38:16.371Z,25.80
2018-05-18T10:43:19.160Z,25.70
2018-05-18T10:48:21.749Z,25.80
2018-05-18T10:53:24.316Z,25.80
2018-05-18T10:58:27.458Z,25.80
2018-05-18T11:03:30.699Z,25.80
2018-05-18T11:08:33.304Z,25.80
2018-05-18T11:13:36.117Z,25.80
2018-05-18T11:18:38.980Z,25.80
2018-05-18T11:23:41.857Z,25.80
2018-05-18T11:28:44.496Z,25.80
2018-05-18T11:33:47.048Z,25.80
2018-05-18T11:38:49.574Z,25.80
2018-05-18T11:43:52.278Z,25.80
2018-05-18T11:48:55.020Z,25.70
2018-05-18T11:53:58.073Z,25.80
2018-05-18T11:59:00.599Z,25.70
2018-05-18T12:04:03.284Z,25.70
2018-05-18T12:09:06.207Z,25.70
2018-05-18T12:14:09.046Z,25.80
2018-05-18T12:19:11.554Z,25.80
2018-05-18T12:24:15.269Z,25.70
2018-05-18T12:29:18.356Z,25.80
2018-05-18T12:34:21.362Z,25.70
2018-05-18T12:39:24.222Z,25.80
2018-05-18T12:44:26.791Z,25.70
2018-05-18T12:49:29.454Z,25.70
2018-05-18T12:54:33.093Z,25.70
2018-05-18T12:59:35.690Z,25.70
2018-05-18T13:04:38.382Z,25.70
2018-05-18T13:09:40.974Z,25.70
2018-05-18T13:14:43.891Z,25.70
2018-05-18T13:19:46.547Z,25.70
2018-05-18T13:24:49.148Z,25.70
2018-05-18T13:29:52.458Z,25.70
2018-05-18T13:34:55.172Z,25.70
2018-05-18T13:39:57.723Z,25.70
2018-05-18T13:45:00.466Z,25.70
2018-05-18T13:50:03.010Z,25.70
2018-05-18T13:55:05.570Z,25.70
2018-05-18T14:00:08.959Z,25.70
2018-05-18T14:05:11.632Z,25.70
2018-05-18T14:10:14.277Z,25.70
2018-05-18T14:15:16.826Z,25.70
2018-05-18T14:20:19.813Z,25.60
2018-05-18T14:25:23.373Z,25.60
2018-05-18T14:30:25.927Z,25.60
2018-05-18T14:35:28.994Z,25.60
2018-05-18T14:40:31.675Z,25.60
2018-05-18T14:45:34.292Z,25.60
2018-05-18T14:50:36.866Z,25.60
2018-05-18T14:55:40.122Z,25.60
2018-05-18T15:00:42.661Z,25.60
2018-05-18T15:05:45.550Z,25.60
2018-05-18T15:10:48.292Z,25.60
2018-05-18T15:15:50.843Z,25.60
2018-05-18T15:20:53.399Z,25.60
2018-05-18T15:25:57.173Z,25.60
2018-05-18T15:30:59.778Z,25.50
2018-05-18T15:36:03.883Z,25.50
2018-05-18T15:41:06.516Z,25.50
2018-05-18T15:46:09.136Z,25.50
2018-05-18T15:51:11.726Z,25.50
2018-05-18T15:56:14.310Z,25.50
2018-05-18T16:01:16.899Z,25.50
2018-05-18T16:06:19.719Z,25.50
2018-05-18T16:11:22.542Z,25.50
2018-05-18T16:16:25.728Z,25.50
2018-05-18T16:21:28.797Z,25.50
2018-05-18T16:26:31.492Z,25.50
2018-05-18T16:31:35.901Z,25.50
2018-05-18T16:36:38.492Z,25.40
2018-05-18T16:41:41.077Z,25.50
2018-05-18T16:46:43.617Z,25.40
2018-05-18T16:51:46.366Z,25.40
2018-05-18T16:56:48.971Z,25.40
2018-05-18T17:01:51.664Z,25.40
2018-05-18T17:06:55.248Z,25.40
2018-05-18T17:11:57.943Z,25.40
2018-05-18T17:17:00.476Z,25.40
2018-05-18T17:22:03.136Z,25.40
2018-05-18T17:27:06.041Z,25.40
2018-05-18T17:32:08.642Z,25.40
2018-05-18T17:37:11.209Z,25.40
2018-05-18T17:42:13.806Z,25.40
2018-05-18T17:47:17.125Z,25.40
2018-05-18T17:52:20.529Z,25.40
2018-05-18T17:57:23.143Z,25.40
2018-05-18T18:02:26.313Z,25.40
2018-05-18T18:07:28.874Z,25.40
2018-05-18T18:12:31.456Z,25.40
2018-05-18T18:17:34.191Z,25.40
2018-05-18T18:22:36.707Z,25.40
2018-05-18T18:27:41.128Z,25.30
2018-05-18T18:32:43.736Z,25.30
2018-05-18T18:37:46.332Z,25.30
2018-05-18T18:42:48.980Z,25.30
2018-05-18T18:47:51.547Z,25.30
2018-05-18T18:52:55.245Z,25.30
2018-05-18T18:57:58.513Z,25.30
2018-05-18T19:03:01.254Z,25.30
2018-05-18T19:08:03.807Z,25.30
2018-05-18T19:13:07.083Z,25.30
2018-05-18T19:18:09.935Z,25.30
2018-05-18T19:23:13.123Z,25.30
2018-05-18T19:28:15.914Z,25.30
2018-05-18T19:33:18.484Z,25.30
2018-05-18T19:38:21.860Z,25.30
2018-05-18T19:43:24.502Z,25.30
2018-05-18T19:48:27.898Z,25.20
2018-05-18T19:53:30.713Z,25.20
2018-05-18T19:58:33.382Z,25.20
2018-05-18T20:03:36.131Z,25.20
2018-05-18T20:08:38.740Z,25.20
2018-05-18T20:13:41.578Z,25.20
2018-05-18T20:18:44.204Z,25.20
2018-05-18T20:23:46.745Z,25.20
2018-05-18T20:28:49.492Z,25.20
2018-05-18T20:33:52.208Z,25.20
2018-05-18T20:38:55.156Z,25.20
2018-05-18T20:43:57.804Z,25.20
2018-05-18T20:49:00.556Z,25.20
2018-05-18T20:54:03.148Z,25.20
2018-05-18T20:59:06.173Z,25.20
2018-05-18T21:04:08.698Z,25.20
2018-05-18T21:09:11.601Z,25.20
2018-05-18T21:14:14.270Z,25.20
2018-05-18T21:19:16.865Z,25.20
2018-05-18T21:24:19.637Z,25.20
2018-05-18T21:29:22.258Z,25.20
2018-05-18T21:34:24.919Z,25.20
2018-05-18T21:39:27.451Z,25.20
2018-05-18T21:44:30.898Z,25.20
2018-05-18T21:49:33.725Z,25.10
2018-05-18T21:54:36.360Z,25.20
2018-05-18T21:59:38.884Z,25.20
2018-05-18T22:04:41.575Z,25.20
2018-05-18T22:09:44.856Z,25.10
2018-05-18T22:14:47.365Z,25.10
2018-05-18T22:19:50.904Z,25.10
2018-05-18T22:24:54.233Z,25.10
2018-05-18T22:29:57.010Z,25.10
2018-05-18T22:34:59.596Z,25.10
2018-05-18T22:40:02.335Z,25.10
2018-05-18T22:45:05.037Z,25.10
2018-05-18T22:50:08.213Z,25.10
2018-05-18T22:55:10.964Z,25.10
2018-05-18T23:00:30.983Z,25.10
2018-05-18T23:05:33.571Z,25.10
2018-05-18T23:10:36.097Z,25.10
2018-05-18T23:15:39.627Z,25.10
2018-05-18T23:20:42.313Z,25.10
2018-05-18T23:25:45.639Z,25.10
2018-05-18T23:30:48.345Z,25.00
2018-05-18T23:35:52.059Z,25.00
2018-05-18T23:40:54.593Z,25.00
2018-05-18T23:45:57.119Z,25.00
2018-05-18T23:51:00.120Z,25.00
2018-05-18T23:56:02.726Z,25.00
